Time;durP1;ratioP1;P1;durP2;ratioP2;P2;SDS_P1;SDS_P2;PMS_P1;PMS_P2;Temp;Humidity;BMP_temperature;BMP_pressure;BME280_temperature;BME280_humidity;BME280_pressure;Samples;Min_cycle;Max_cycle;Signal;HPM_P1;HPM_P2
2023/04/08 00:01:05;;;;;;;20.45;13.35;;;9.40;98.20;;;;;;5015519;28;20080;-73
2023/04/08 00:03:31;;;;;;;21.40;12.98;;;9.40;99.60;;;;;;5015308;28;20037;-73
2023/04/08 00:05:57;;;;;;;19.13;13.02;;;9.30;99.00;;;;;;5015226;28;20026;-73
2023/04/08 00:08:22;;;;;;;21.70;14.48;;;9.40;97.60;;;;;;5014826;28;20116;-73
2023/04/08 00:10:48;;;;;;;21.48;14.05;;;9.50;96.90;;;;;;5015018;28;20025;-73
2023/04/08 00:13:14;;;;;;;26.55;14.35;;;9.40;98.40;;;;;;5014911;28;20029;-73
2023/04/08 00:15:40;;;;;;;22.08;14.60;;;9.10;99.50;;;;;;5015151;28;20021;-73
2023/04/08 00:18:07;;;;;;;22.17;14.93;;;8.90;99.90;;;;;;5014912;28;20018;-73
2023/04/08 00:20:32;;;;;;;22.63;14.50;;;8.90;99.90;;;;;;5015069;28;20099;-73
2023/04/08 00:22:58;;;;;;;24.27;14.25;;;8.80;99.90;;;;;;5014696;28;20407;-73
2023/04/08 00:25:24;;;;;;;20.58;13.63;;;8.50;99.90;;;;;;5014790;28;20507;-73
2023/04/08 00:27:50;;;;;;;20.90;14.20;;;8.60;99.90;;;;;;5014533;28;20070;-73
2023/04/08 00:30:15;;;;;;;20.25;13.02;;;8.60;99.90;;;;;;5014394;28;20105;-73
2023/04/08 00:32:41;;;;;;;22.25;14.30;;;8.60;99.90;;;;;;5014739;28;20190;-73
2023/04/08 00:35:07;;;;;;;22.60;13.50;;;8.70;99.90;;;;;;5014669;28;20030;-73
2023/04/08 00:37:33;;;;;;;22.33;13.93;;;8.60;99.90;;;;;;5014390;28;20034;-73
2023/04/08 00:39:59;;;;;;;23.77;14.45;;;8.70;99.90;;;;;;5013779;28;20033;-73
2023/04/08 00:42:25;;;;;;;21.90;12.85;;;8.80;99.90;;;;;;5014587;28;20041;-73
2023/04/08 00:44:51;;;;;;;19.50;12.30;;;8.90;99.90;;;;;;5014367;28;20049;-74
2023/04/08 00:47:17;;;;;;;25.90;13.20;;;9.00;99.90;;;;;;5014295;28;20044;-73
2023/04/08 00:49:43;;;;;;;22.48;13.43;;;9.10;99.90;;;;;;5014479;28;20401;-73
2023/04/08 00:52:09;;;;;;;18.35;12.25;;;9.10;99.90;;;;;;5014356;28;20112;-73
2023/04/08 00:54:36;;;;;;;21.38;12.80;;;8.80;99.90;;;;;;5014277;28;20088;-73
2023/04/08 00:57:04;;;;;;;21.90;12.93;;;8.60;99.90;;;;;;5014349;28;20080;-73
2023/04/08 00:59:30;;;;;;;21.58;13.15;;;8.60;99.90;;;;;;5014014;28;20030;-73
2023/04/08 01:02:05;;;;;;;22.77;13.35;;;8.40;99.90;;;;;;5014245;28;20026;-73
2023/04/08 01:04:49;;;;;;;19.02;11.40;;;8.80;99.90;;;;;;5014301;28;20061;-73
2023/04/08 01:07:26;;;;;;;20.52;10.93;;;8.80;99.90;;;;;;5014188;28;20034;-73
2023/04/08 01:09:56;;;;;;;18.08;10.38;;;8.60;99.90;;;;;;5014072;28;20088;-73
2023/04/08 01:12:28;;;;;;;20.67;11.27;;;8.40;99.90;;;;;;5014071;28;20076;-73
2023/04/08 01:15:02;;;;;;;19.55;10.50;;;8.30;99.90;;;;;;5013925;28;20109;-73
2023/04/08 01:17:29;;;;;;;18.17;11.38;;;8.10;99.90;;;;;;5013872;28;20030;-73
2023/04/08 01:19:58;;;;;;;17.17;11.35;;;8.00;99.90;;;;;;5013970;28;20380;-73
2023/04/08 01:22:41;;;;;;;18.90;11.27;;;8.20;99.90;;;;;;5013865;28;20022;-73
2023/04/08 01:25:16;;;;;;;20.05;10.98;;;8.20;99.90;;;;;;5013668;28;20053;-73
2023/04/08 01:27:42;;;;;;;15.80;10.48;;;8.10;99.90;;;;;;5013252;28;20069;-73
2023/04/08 01:30:09;;;;;;;19.33;10.85;;;8.00;99.90;;;;;;5013755;28;20030;-73
2023/04/08 01:32:37;;;;;;;15.32;10.07;;;7.90;99.90;;;;;;5013673;28;20033;-73
2023/04/08 01:35:03;;;;;;;16.55;10.18;;;7.80;99.90;;;;;;5013592;28;20036;-73
2023/04/08 01:37:31;;;;;;;16.63;10.77;;;7.80;99.90;;;;;;5013383;28;20018;-73
2023/04/08 01:39:59;;;;;;;16.20;9.88;;;7.70;99.90;;;;;;5013559;28;20036;-73
2023/04/08 01:42:27;;;;;;;15.68;9.75;;;7.80;99.90;;;;;;5013034;28;20049;-73
2023/04/08 01:44:56;;;;;;;18.33;11.63;;;7.80;99.90;;;;;;5013274;28;20093;-73
2023/04/08 01:47:23;;;;;;;16.20;9.65;;;7.70;99.90;;;;;;5013238;28;20038;-73
2023/04/08 01:49:51;;;;;;;20.48;10.50;;;7.70;99.90;;;;;;5013310;28;20084;-73
2023/04/08 01:52:18;;;;;;;15.98;9.73;;;7.70;99.90;;;;;;5013475;28;20037;-73
2023/04/08 01:54:44;;;;;;;18.15;10.65;;;7.70;99.90;;;;;;5013328;28;20038;-73
2023/04/08 01:57:16;;;;;;;16.58;9.90;;;7.80;99.90;;;;;;5013368;28;20040;-73
2023/04/08 01:59:44;;;;;;;17.75;10.55;;;7.80;99.90;;;;;;5013341;28;20026;-73
2023/04/08 02:02:11;;;;;;;18.40;11.65;;;8.00;99.90;;;;;;5013039;28;20034;-73
2023/04/08 02:04:36;;;;;;;18.95;11.00;;;8.10;99.90;;;;;;5013281;28;20030;-73
2023/04/08 02:07:03;;;;;;;18.73;12.18;;;8.10;99.90;;;;;;5013164;28;20108;-73
2023/04/08 02:09:29;;;;;;;16.65;11.35;;;8.00;99.90;;;;;;5012886;28;20037;-73
2023/04/08 02:11:56;;;;;;;20.42;10.88;;;7.80;99.90;;;;;;5013193;28;20033;-73
2023/04/08 02:14:22;;;;;;;22.30;11.43;;;7.70;99.90;;;;;;5012954;28;20092;-73
2023/04/08 02:16:53;;;;;;;20.17;12.07;;;7.80;99.90;;;;;;5013072;28;20030;-73
2023/04/08 02:19:31;;;;;;;17.95;10.75;;;7.90;99.90;;;;;;5012650;28;20041;-73
2023/04/08 02:22:07;;;;;;;18.13;10.68;;;7.90;99.90;;;;;;5012444;28;20065;-73
2023/04/08 02:24:34;;;;;;;17.40;11.27;;;7.90;99.90;;;;;;5013039;28;20034;-73
2023/04/08 02:27:02;;;;;;;18.20;11.68;;;7.90;99.90;;;;;;5012915;28;20037;-73
2023/04/08 02:29:31;;;;;;;18.02;11.23;;;8.00;99.90;;;;;;5012899;28;20436;-73
2023/04/08 02:31:57;;;;;;;18.02;11.13;;;8.00;99.90;;;;;;5012929;28;20030;-73
2023/04/08 02:34:24;;;;;;;19.80;12.15;;;7.90;99.90;;;;;;5012869;28;20029;-73
2023/04/08 02:36:51;;;;;;;18.25;11.25;;;7.80;99.90;;;;;;5012973;28;20030;-73
2023/04/08 02:39:16;;;;;;;21.17;12.18;;;7.70;99.90;;;;;;5012885;28;20500;-73
2023/04/08 02:41:42;;;;;;;20.85;12.73;;;7.70;99.90;;;;;;5012924;28;20034;-73
2023/04/08 02:44:08;;;;;;;21.52;11.98;;;7.80;99.90;;;;;;5012781;28;20026;-73
2023/04/08 02:46:34;;;;;;;18.20;11.65;;;7.90;99.90;;;;;;5012829;28;20488;-73
2023/04/08 02:49:00;;;;;;;19.30;11.77;;;8.00;99.90;;;;;;5012428;28;20045;-73
2023/04/08 02:51:26;;;;;;;17.48;11.48;;;7.80;99.90;;;;;;5012909;28;20059;-73
2023/04/08 02:53:52;;;;;;;18.85;11.93;;;7.70;99.90;;;;;;5012804;28;20026;-73
2023/04/08 02:56:18;;;;;;;20.20;11.57;;;7.60;99.90;;;;;;5012817;28;20087;-73
2023/04/08 02:58:44;;;;;;;18.60;11.73;;;7.50;99.90;;;;;;5012533;28;20032;-73
2023/04/08 03:01:10;;;;;;;19.02;11.38;;;7.50;99.90;;;;;;5012448;28;20037;-73
2023/04/08 03:03:36;;;;;;;20.23;12.75;;;7.50;99.90;;;;;;5012400;28;20034;-73
2023/04/08 03:06:02;;;;;;;16.67;9.77;;;7.50;99.90;;;;;;5011034;28;20040;-73
2023/04/08 03:08:28;;;;;;;20.70;11.93;;;7.20;99.90;;;;;;5011009;28;20049;-73
2023/04/08 03:10:53;;;;;;;20.40;12.88;;;7.30;99.90;;;;;;5011126;28;20026;-74
2023/04/08 03:13:19;;;;;;;21.08;12.25;;;7.30;99.90;;;;;;5010776;28;20025;-74
2023/04/08 03:15:45;;;;;;;20.15;11.95;;;7.30;99.90;;;;;;5011291;28;20488;-74
2023/04/08 03:18:10;;;;;;;19.05;11.73;;;7.30;99.90;;;;;;5008044;28;20038;-74
2023/04/08 03:20:36;;;;;;;19.15;11.50;;;7.30;99.90;;;;;;5008611;28;20041;-74
2023/04/08 03:23:02;;;;;;;19.95;13.45;;;7.30;99.90;;;;;;5010473;28;20101;-74
2023/04/08 03:25:28;;;;;;;20.42;12.82;;;7.30;99.90;;;;;;5011671;28;20087;-74
2023/04/08 03:27:54;;;;;;;17.92;12.18;;;7.40;99.90;;;;;;5011541;28;20109;-74
2023/04/08 03:30:20;;;;;;;19.38;11.80;;;7.40;99.90;;;;;;5011188;28;20124;-74
2023/04/08 03:32:45;;;;;;;19.00;12.30;;;7.40;99.90;;;;;;5011159;28;21093;-74
2023/04/08 03:35:11;;;;;;;24.17;13.73;;;7.50;99.90;;;;;;5011159;28;20100;-74
2023/04/08 03:37:37;;;;;;;21.55;13.93;;;7.60;99.90;;;;;;5011488;28;20056;-74
2023/04/08 03:40:03;;;;;;;20.55;13.68;;;7.70;99.90;;;;;;5011316;28;20026;-75
2023/04/08 03:42:28;;;;;;;21.25;12.98;;;7.70;99.90;;;;;;5011185;28;20034;-74
2023/04/08 03:44:54;;;;;;;20.05;12.68;;;7.70;99.90;;;;;;5010529;28;20057;-74
2023/04/08 03:47:20;;;;;;;20.98;12.77;;;7.50;99.90;;;;;;5008388;28;20036;-74
2023/04/08 03:49:45;;;;;;;17.80;12.00;;;7.50;99.90;;;;;;5008572;28;20476;-74
2023/04/08 03:52:11;;;;;;;20.30;13.38;;;7.40;99.90;;;;;;5010757;28;20026;-74
2023/04/08 03:54:36;;;;;;;23.00;13.85;;;7.20;99.90;;;;;;5011318;28;20065;-74
2023/04/08 03:57:02;;;;;;;23.77;12.82;;;7.40;99.90;;;;;;5011201;28;20053;-74
2023/04/08 03:59:28;;;;;;;21.27;13.50;;;7.40;99.90;;;;;;5007852;28;20025;-74
2023/04/08 04:01:53;;;;;;;22.98;13.82;;;7.50;99.90;;;;;;5007955;28;20076;-74
2023/04/08 04:04:19;;;;;;;22.75;13.68;;;7.50;99.90;;;;;;5008135;28;20096;-74
2023/04/08 04:06:45;;;;;;;20.65;13.18;;;7.40;99.90;;;;;;5008038;28;20022;-74
2023/04/08 04:09:11;;;;;;;21.13;13.38;;;7.20;99.90;;;;;;5007945;28;20064;-74
2023/04/08 04:11:37;;;;;;;24.50;13.65;;;7.30;99.90;;;;;;5007967;28;20030;-74
2023/04/08 04:14:03;;;;;;;23.52;13.98;;;7.20;99.90;;;;;;5007773;28;20042;-74
2023/04/08 04:16:29;;;;;;;23.33;14.63;;;7.10;99.90;;;;;;5007354;28;20026;-74
2023/04/08 04:18:54;;;;;;;21.67;13.55;;;7.10;99.90;;;;;;5007598;28;20101;-74
2023/04/08 04:21:20;;;;;;;22.42;13.25;;;7.10;99.90;;;;;;5007890;28;20128;-74
2023/04/08 04:23:46;;;;;;;21.35;14.10;;;7.10;99.90;;;;;;5007898;28;20030;-74
2023/04/08 04:26:12;;;;;;;21.17;13.68;;;7.20;99.90;;;;;;5007502;28;20460;-74
2023/04/08 04:28:38;;;;;;;22.27;13.77;;;7.10;99.90;;;;;;5007402;28;20091;-74
2023/04/08 04:31:04;;;;;;;23.13;14.45;;;7.00;99.90;;;;;;5007520;28;20128;-74
2023/04/08 04:33:30;;;;;;;22.35;14.05;;;7.00;99.90;;;;;;5007786;28;20326;-74
2023/04/08 04:35:56;;;;;;;22.75;13.32;;;7.00;99.90;;;;;;5007360;28;20041;-74
2023/04/08 04:38:22;;;;;;;23.20;13.95;;;6.90;99.90;;;;;;5007648;28;20388;-73
2023/04/08 04:40:47;;;;;;;25.92;14.77;;;6.90;99.90;;;;;;5007935;28;20028;-74
2023/04/08 04:43:13;;;;;;;20.63;13.65;;;6.80;99.90;;;;;;5008168;28;20034;-74
2023/04/08 04:45:39;;;;;;;22.65;13.82;;;6.90;99.90;;;;;;5007160;28;20048;-74
2023/04/08 04:48:05;;;;;;;24.00;14.48;;;6.80;99.90;;;;;;5007629;28;20033;-74
2023/04/08 04:50:30;;;;;;;21.48;13.18;;;6.70;99.90;;;;;;5007823;28;20026;-74
2023/04/08 04:52:56;;;;;;;23.20;13.77;;;6.70;99.90;;;;;;5007822;28;20030;-73
2023/04/08 04:55:22;;;;;;;22.50;13.30;;;6.60;99.90;;;;;;5007880;28;20388;-74
2023/04/08 04:57:48;;;;;;;24.65;15.02;;;6.70;99.90;;;;;;5007017;28;20025;-73
2023/04/08 05:00:15;;;;;;;22.90;14.52;;;6.70;99.90;;;;;;5006476;28;20181;-74
2023/04/08 05:02:40;;;;;;;22.88;14.45;;;6.70;99.90;;;;;;5006924;28;20111;-74
2023/04/08 05:05:06;;;;;;;18.40;12.88;;;6.90;99.90;;;;;;5006749;28;20022;-74
2023/04/08 05:07:36;;;;;;;23.55;14.13;;;6.90;99.90;;;;;;5006783;28;20034;-74
2023/04/08 05:10:03;;;;;;;24.38;14.32;;;6.90;99.90;;;;;;5006711;28;20025;-74
2023/04/08 05:12:29;;;;;;;20.95;14.23;;;6.90;99.90;;;;;;5006932;28;20362;-74
2023/04/08 05:14:57;;;;;;;21.17;13.43;;;7.00;99.90;;;;;;5006825;28;20143;-73
2023/04/08 05:17:22;;;;;;;23.55;14.10;;;7.00;99.90;;;;;;5007079;28;20030;-74
2023/04/08 05:19:48;;;;;;;24.95;14.90;;;7.00;99.90;;;;;;5006305;28;20025;-74
2023/04/08 05:22:14;;;;;;;23.08;13.40;;;7.10;99.90;;;;;;5006505;28;20028;-74
2023/04/08 05:24:40;;;;;;;21.10;13.45;;;7.10;99.90;;;;;;5006193;28;20152;-73
2023/04/08 05:27:05;;;;;;;23.27;14.18;;;7.00;99.90;;;;;;5006406;28;20041;-74
2023/04/08 05:29:31;;;;;;;23.10;13.45;;;7.00;99.90;;;;;;5006221;28;20026;-74
2023/04/08 05:31:57;;;;;;;20.65;13.13;;;7.20;99.90;;;;;;5006609;28;20026;-74
2023/04/08 05:34:23;;;;;;;20.73;13.75;;;7.20;99.90;;;;;;5006956;28;20105;-74
2023/04/08 05:36:52;;;;;;;23.45;13.10;;;7.20;99.90;;;;;;5006949;28;20133;-74
2023/04/08 05:39:18;;;;;;;21.75;13.93;;;7.20;99.90;;;;;;5006683;28;20383;-74
2023/04/08 05:41:44;;;;;;;22.00;14.70;;;7.40;99.90;;;;;;5006480;28;20084;-74
2023/04/08 05:44:11;;;;;;;23.60;12.48;;;7.50;99.90;;;;;;5006427;28;20028;-74
2023/04/08 05:46:37;;;;;;;23.27;13.65;;;7.60;99.90;;;;;;5006526;28;20372;-73
2023/04/08 05:49:03;;;;;;;24.27;13.52;;;7.70;99.90;;;;;;5006314;28;20105;-74
2023/04/08 05:51:29;;;;;;;25.48;14.60;;;7.80;99.90;;;;;;5006533;28;20026;-74
2023/04/08 05:53:54;;;;;;;21.50;13.25;;;7.90;99.90;;;;;;5006126;28;20479;-74
2023/04/08 05:56:20;;;;;;;20.75;11.88;;;8.00;99.90;;;;;;5006072;28;20026;-74
2023/04/08 05:58:46;;;;;;;19.90;13.15;;;8.00;99.90;;;;;;5005943;28;20060;-74
2023/04/08 06:01:12;;;;;;;25.02;13.27;;;8.10;99.90;;;;;;5006437;28;21098;-74
2023/04/08 06:03:38;;;;;;;23.13;14.18;;;8.10;99.90;;;;;;5006399;28;20029;-73
2023/04/08 06:06:08;;;;;;;24.73;14.10;;;8.20;99.90;;;;;;5007680;28;20030;-74
2023/04/08 06:08:33;;;;;;;22.17;13.73;;;8.30;99.90;;;;;;5009234;28;20049;-74
2023/04/08 06:10:59;;;;;;;22.23;12.95;;;8.40;99.80;;;;;;5009054;28;20369;-74
2023/04/08 06:13:25;;;;;;;32.72;17.45;;;8.30;99.00;;;;;;5008953;28;20022;-74
2023/04/08 06:15:50;;;;;;;23.98;14.02;;;8.50;99.50;;;;;;5009196;28;20464;-74
2023/04/08 06:18:16;;;;;;;24.20;14.20;;;8.60;99.10;;;;;;5009155;28;20046;-74
2023/04/08 06:20:42;;;;;;;22.10;14.10;;;8.60;99.30;;;;;;5008826;28;20025;-74
2023/04/08 06:23:08;;;;;;;23.90;13.38;;;8.60;99.00;;;;;;5008794;28;20029;-74
2023/04/08 06:25:33;;;;;;;21.75;13.85;;;8.70;99.80;;;;;;5008409;28;20033;-74
2023/04/08 06:27:59;;;;;;;24.88;13.35;;;8.60;99.50;;;;;;5008573;28;20082;-73
2023/04/08 06:30:25;;;;;;;30.10;14.13;;;8.60;99.10;;;;;;5008838;28;20063;-74
2023/04/08 06:32:50;;;;;;;27.70;15.23;;;8.70;99.70;;;;;;5008631;28;20030;-75
2023/04/08 06:35:16;;;;;;;24.15;14.90;;;8.70;99.20;;;;;;5008893;28;20030;-74
2023/04/08 06:37:42;;;;;;;22.02;14.00;;;8.80;99.00;;;;;;5011041;28;20040;-74
2023/04/08 06:40:08;;;;;;;23.60;13.98;;;9.00;99.10;;;;;;5012758;28;20661;-74
2023/04/08 06:42:33;;;;;;;24.02;15.55;;;9.00;99.40;;;;;;5012819;28;20546;-74
2023/04/08 06:44:59;;;;;;;26.17;14.48;;;9.20;99.20;;;;;;5012556;28;20046;-74
2023/04/08 06:47:25;;;;;;;23.52;14.18;;;9.30;99.00;;;;;;5012516;28;20539;-74
2023/04/08 06:49:50;;;;;;;23.58;14.23;;;9.30;99.60;;;;;;5012591;28;20385;-74
2023/04/08 06:52:16;;;;;;;23.60;13.77;;;9.20;99.80;;;;;;5012888;28;20457;-74
2023/04/08 06:54:42;;;;;;;23.42;13.93;;;9.30;99.80;;;;;;5012308;28;20169;-74
2023/04/08 06:57:08;;;;;;;20.88;14.32;;;9.30;99.00;;;;;;5012583;28;20041;-74
2023/04/08 06:59:34;;;;;;;24.17;13.80;;;9.40;99.30;;;;;;5012364;28;20780;-72
2023/04/08 07:01:59;;;;;;;25.23;13.20;;;9.40;99.10;;;;;;5012376;28;20029;-74
2023/04/08 07:04:25;;;;;;;24.85;14.30;;;9.30;98.40;;;;;;5012349;28;20022;-74
2023/04/08 07:06:51;;;;;;;23.65;14.77;;;9.30;98.80;;;;;;5011491;28;20033;-74
2023/04/08 07:09:17;;;;;;;26.73;14.65;;;9.20;99.00;;;;;;5012054;28;20025;-74
2023/04/08 07:11:42;;;;;;;26.10;15.52;;;9.20;99.20;;;;;;5012543;28;20026;-74
2023/04/08 07:14:08;;;;;;;22.90;14.07;;;9.10;99.40;;;;;;5012074;28;20119;-74
2023/04/08 07:16:34;;;;;;;54.42;16.70;;;9.20;99.70;;;;;;5012389;28;20036;-73
2023/04/08 07:19:00;;;;;;;27.25;13.63;;;9.20;99.80;;;;;;5012299;28;20479;-74
2023/04/08 07:21:26;;;;;;;20.42;13.38;;;11.20;96.90;;;;;;4995568;28;20472;-75
2023/04/08 07:23:52;;;;;;;20.98;12.80;;;13.60;94.50;;;;;;4987820;28;20024;-73
2023/04/08 07:26:18;;;;;;;21.38;14.38;;;14.80;91.10;;;;;;5007559;28;20025;-74
2023/04/08 07:28:44;;;;;;;23.55;14.07;;;12.60;92.40;;;;;;5011778;28;20073;-73
2023/04/08 07:31:15;;;;;;;25.67;13.55;;;11.30;94.60;;;;;;5010356;28;20109;-75
2023/04/08 07:33:41;;;;;;;23.30;13.75;;;10.60;95.40;;;;;;5011401;28;20041;-72
2023/04/08 07:36:09;;;;;;;21.42;13.23;;;10.10;95.40;;;;;;5011848;28;20411;-73
2023/04/08 07:38:35;;;;;;;23.23;12.82;;;9.90;95.30;;;;;;5011574;28;20547;-72
2023/04/08 07:41:01;;;;;;;19.85;12.55;;;9.70;95.00;;;;;;5003752;28;20030;-73
2023/04/08 07:43:26;;;;;;;23.45;13.68;;;9.70;94.40;;;;;;4996719;28;20045;-74
2023/04/08 07:45:52;;;;;;;22.30;14.15;;;9.70;94.90;;;;;;5007125;28;20072;-74
2023/04/08 07:48:18;;;;;;;21.98;12.75;;;9.70;95.10;;;;;;5010112;28;20388;-72
2023/04/08 07:50:44;;;;;;;26.02;14.65;;;9.80;95.40;;;;;;5010903;28;20096;-73
2023/04/08 07:53:10;;;;;;;20.83;13.02;;;9.70;95.40;;;;;;4999642;28;20029;-74
2023/04/08 07:55:38;;;;;;;20.48;12.10;;;9.90;95.60;;;;;;4998348;28;20026;-74
2023/04/08 07:58:03;;;;;;;25.27;14.70;;;9.90;95.50;;;;;;5006799;28;20017;-74
2023/04/08 08:00:30;;;;;;;23.42;13.52;;;9.90;95.50;;;;;;4998821;28;20523;-74
2023/04/08 08:02:55;;;;;;;25.08;14.65;;;10.00;95.60;;;;;;5007085;28;20029;-74
2023/04/08 08:05:21;;;;;;;28.83;14.45;;;10.00;95.40;;;;;;4991839;28;20469;-74
2023/04/08 08:07:47;;;;;;;26.27;13.30;;;10.00;95.00;;;;;;4991352;28;20084;-74
2023/04/08 08:10:12;;;;;;;23.70;14.27;;;10.10;94.90;;;;;;4991440;28;20038;-74
2023/04/08 08:12:38;;;;;;;22.13;14.38;;;10.10;94.90;;;;;;4991536;28;20044;-74
2023/04/08 08:15:04;;;;;;;20.27;13.45;;;10.20;94.90;;;;;;4991405;28;20493;-73
2023/04/08 08:17:32;;;;;;;22.20;13.88;;;10.40;95.00;;;;;;4994639;28;20057;-74
2023/04/08 08:19:59;;;;;;;23.95;15.38;;;10.40;94.80;;;;;;5009700;28;20037;-74
2023/04/08 08:22:25;;;;;;;25.25;13.38;;;10.50;95.00;;;;;;4991307;28;20045;-74
2023/04/08 08:24:55;;;;;;;25.77;14.15;;;10.50;95.00;;;;;;5001604;28;20034;-72
2023/04/08 08:27:21;;;;;;;21.92;13.32;;;10.60;94.90;;;;;;5024203;28;20499;-73
2023/04/08 08:29:47;;;;;;;25.40;14.68;;;10.50;94.90;;;;;;5029657;28;20041;-74
2023/04/08 08:32:12;;;;;;;23.73;13.77;;;10.60;94.90;;;;;;5010322;28;20186;-74
2023/04/08 08:34:38;;;;;;;22.70;14.55;;;10.70;94.70;;;;;;5010064;28;20036;-74
2023/04/08 08:37:03;;;;;;;21.45;14.18;;;10.90;94.00;;;;;;5009793;28;20030;-74
2023/04/08 08:39:29;;;;;;;21.08;13.20;;;11.00;94.20;;;;;;5010662;28;20030;-74
2023/04/08 08:41:55;;;;;;;23.75;13.68;;;10.90;94.30;;;;;;5010661;28;20026;-75
2023/04/08 08:44:22;;;;;;;30.73;13.23;;;11.00;94.00;;;;;;5029692;28;20041;-73
2023/04/08 08:46:47;;;;;;;23.63;14.02;;;11.20;94.20;;;;;;5029589;28;20029;-74
2023/04/08 08:49:13;;;;;;;20.65;13.07;;;11.30;93.80;;;;;;5029761;28;20037;-74
2023/04/08 08:51:45;;;;;;;20.88;12.35;;;11.40;93.80;;;;;;5010675;28;20025;-73
2023/04/08 08:54:11;;;;;;;24.92;12.25;;;11.50;92.70;;;;;;5010120;28;20026;-74
2023/04/08 08:56:37;;;;;;;18.33;12.05;;;12.60;92.10;;;;;;5009269;28;20038;-74
2023/04/08 08:59:03;;;;;;;18.52;11.32;;;15.80;89.40;;;;;;5004515;28;20152;-74
2023/04/08 09:01:29;;;;;;;20.25;13.20;;;16.70;86.60;;;;;;5009687;28;20061;-74
2023/04/08 09:04:10;;;;;;;17.33;11.00;;;18.20;81.60;;;;;;5009602;28;20044;-74
2023/04/08 09:06:37;;;;;;;32.15;12.13;;;18.10;80.30;;;;;;5010139;28;20030;-74
2023/04/08 09:09:09;;;;;;;21.45;11.60;;;18.00;79.70;;;;;;5009770;28;20625;-74
2023/04/08 09:11:36;;;;;;;19.80;12.52;;;18.10;79.90;;;;;;5009444;28;20028;-74
2023/04/08 09:14:02;;;;;;;21.10;12.02;;;18.50;80.50;;;;;;5009385;28;20026;-74
2023/04/08 09:16:30;;;;;;;24.20;12.27;;;18.70;78.70;;;;;;5008987;28;20032;-74
2023/04/08 09:19:10;;;;;;;21.23;14.10;;;18.50;79.20;;;;;;5009420;28;20030;-74
2023/04/08 09:21:37;;;;;;;19.30;12.70;;;18.10;77.40;;;;;;5009315;28;20108;-74
2023/04/08 09:24:03;;;;;;;16.38;10.55;;;18.40;77.10;;;;;;5009098;28;20030;-72
2023/04/08 09:26:29;;;;;;;16.33;10.15;;;18.80;76.80;;;;;;5009292;28;20105;-74
2023/04/08 09:29:01;;;;;;;19.38;9.45;;;18.90;76.60;;;;;;5008574;28;20432;-74
2023/04/08 09:31:37;;;;;;;19.58;9.93;;;18.50;75.70;;;;;;5008531;28;20030;-74
2023/04/08 09:34:10;;;;;;;17.42;10.73;;;18.20;76.70;;;;;;5009530;28;20026;-73
2023/04/08 09:36:36;;;;;;;18.10;10.60;;;17.40;78.10;;;;;;5008834;28;20606;-74
2023/04/08 09:39:01;;;;;;;19.42;11.15;;;16.70;80.50;;;;;;5008848;28;20026;-74
2023/04/08 09:41:32;;;;;;;19.05;11.18;;;16.10;79.90;;;;;;5008293;28;20064;-75
2023/04/08 09:43:59;;;;;;;27.67;11.27;;;15.30;81.00;;;;;;5008366;28;20032;-74
2023/04/08 09:46:25;;;;;;;25.02;11.40;;;15.10;82.10;;;;;;5007828;28;20069;-73
2023/04/08 09:49:26;;;;;;;19.30;9.88;;;15.00;82.60;;;;;;5007995;28;20033;-73
2023/04/08 09:51:59;;;;;;;17.27;10.45;;;14.70;81.50;;;;;;5008742;28;20026;-74
2023/04/08 09:54:35;;;;;;;15.27;9.32;;;14.60;82.50;;;;;;4996917;28;20025;-74
2023/04/08 09:57:08;;;;;;;16.60;9.65;;;14.50;83.00;;;;;;5009043;28;20116;-74
2023/04/08 09:59:37;;;;;;;17.20;9.40;;;14.30;82.10;;;;;;5009079;28;20559;-74
2023/04/08 10:02:10;;;;;;;20.73;10.35;;;14.50;83.00;;;;;;5002232;28;20065;-74
2023/04/08 10:04:40;;;;;;;17.48;8.68;;;14.80;81.70;;;;;;4986391;28;20124;-74
2023/04/08 10:07:07;;;;;;;12.10;7.35;;;14.80;81.70;;;;;;4984935;28;20030;-74
2023/04/08 10:09:34;;;;;;;12.52;7.32;;;15.00;80.50;;;;;;4987760;28;20084;-74
2023/04/08 10:12:02;;;;;;;15.10;7.80;;;14.80;79.60;;;;;;5001498;28;20030;-74
2023/04/08 10:14:27;;;;;;;17.13;7.22;;;14.80;81.60;;;;;;5006303;28;20389;-73
2023/04/08 10:17:26;;;;;;;12.65;7.15;;;15.00;80.80;;;;;;5008170;28;20037;-73
2023/04/08 10:19:52;;;;;;;14.32;7.63;;;15.20;79.70;;;;;;4996864;28;20033;-73
2023/04/08 10:22:33;;;;;;;14.10;6.25;;;15.70;79.50;;;;;;5000327;28;20177;-72
2023/04/08 10:25:17;;;;;;;16.60;6.70;;;16.10;78.60;;;;;;4999453;28;20030;-74
2023/04/08 10:27:44;;;;;;;19.02;9.13;;;16.00;78.30;;;;;;5004276;28;20081;-74
2023/04/08 10:30:25;;;;;;;17.23;9.43;;;15.70;78.20;;;;;;5005815;28;20026;-74
2023/04/08 10:35:30;;;;;;;10.00;5.25;;;15.70;77.60;;;;;;4959774;26;20062;-73
2023/04/08 10:37:59;;;;;;;9.90;6.15;;;15.70;76.80;;;;;;4983443;28;20026;-72
2023/04/08 10:40:25;;;;;;;9.50;5.22;;;15.50;76.30;;;;;;4977679;28;20057;-73
2023/04/08 10:42:55;;;;;;;11.40;5.60;;;15.40;78.10;;;;;;4984291;28;20914;-75
2023/04/08 10:45:21;;;;;;;10.35;6.13;;;15.20;76.60;;;;;;4982772;28;20026;-73
2023/04/08 10:47:47;;;;;;;14.27;6.72;;;15.30;78.00;;;;;;4984049;28;20133;-73
2023/04/08 10:50:22;;;;;;;13.02;7.35;;;15.40;79.40;;;;;;4985761;28;20109;-73
2023/04/08 10:52:54;;;;;;;11.10;6.50;;;15.60;77.30;;;;;;4985638;28;20500;-73
2023/04/08 10:55:23;;;;;;;12.20;6.70;;;15.40;76.90;;;;;;4983647;28;20129;-73
2023/04/08 10:57:50;;;;;;;13.20;6.93;;;15.40;76.70;;;;;;4984601;28;20022;-75
2023/04/08 11:00:31;;;;;;;12.07;6.97;;;15.70;77.30;;;;;;4985421;28;20022;-73
2023/04/08 11:03:06;;;;;;;10.30;5.35;;;16.40;77.50;;;;;;4984734;28;20389;-73
2023/04/08 11:05:32;;;;;;;11.88;5.93;;;16.60;74.80;;;;;;4985809;28;20329;-72
2023/04/08 11:07:59;;;;;;;9.23;5.65;;;16.90;75.30;;;;;;4985234;28;20035;-73
2023/04/08 11:10:25;;;;;;;9.70;5.10;;;16.80;73.20;;;;;;4985362;28;20492;-73
2023/04/08 11:12:56;;;;;;;9.25;4.88;;;16.50;73.70;;;;;;4985286;28;20492;-74
2023/04/08 11:15:23;;;;;;;9.07;4.82;;;16.80;74.10;;;;;;4984506;28;20031;-73
2023/04/08 11:17:50;;;;;;;11.65;5.32;;;17.10;73.50;;;;;;4985266;28;20108;-73
2023/04/08 11:20:16;;;;;;;15.15;5.50;;;17.40;72.90;;;;;;4985060;28;20034;-73
2023/04/08 11:22:44;;;;;;;9.68;5.28;;;17.50;73.00;;;;;;4986404;28;20579;-73
2023/04/08 11:25:10;;;;;;;7.80;4.28;;;17.60;72.60;;;;;;4986683;28;20045;-74
2023/04/08 11:27:38;;;;;;;11.75;4.43;;;17.40;71.90;;;;;;4988869;28;20044;-72
2023/04/08 11:30:05;;;;;;;11.05;4.18;;;17.40;73.00;;;;;;4988569;28;20034;-75
2023/04/08 11:32:32;;;;;;;6.03;3.20;;;17.40;70.90;;;;;;4988547;28;20161;-73
2023/04/08 11:35:04;;;;;;;5.85;3.10;;;17.40;71.00;;;;;;4988087;28;20064;-73
2023/04/08 11:37:38;;;;;;;5.97;3.10;;;17.80;70.20;;;;;;4988947;28;20084;-73
2023/04/08 11:40:10;;;;;;;4.88;2.72;;;17.90;70.90;;;;;;4988743;28;20097;-73
2023/04/08 11:42:36;;;;;;;4.13;2.20;;;17.90;70.10;;;;;;4988969;28;20049;-73
2023/04/08 11:45:10;;;;;;;4.95;2.40;;;17.70;67.30;;;;;;4988442;28;20042;-74
2023/04/08 11:47:36;;;;;;;;;;;17.50;69.60;;;;;;4988220;28;20645;-73
2023/04/08 11:50:02;;;;;;;9.02;2.83;;;17.80;70.20;;;;;;4988436;28;19906;-73
2023/04/08 11:52:43;;;;;;;5.30;2.95;;;17.80;68.70;;;;;;4988314;28;20121;-73
2023/04/08 11:55:20;;;;;;;5.25;2.90;;;17.80;68.10;;;;;;4988429;28;20035;-73
2023/04/08 11:57:47;;;;;;;5.15;2.58;;;18.30;69.10;;;;;;4988492;28;20033;-74
2023/04/08 12:00:13;;;;;;;6.72;3.60;;;18.40;66.50;;;;;;4988605;28;20076;-73
2023/04/08 12:02:39;;;;;;;6.35;2.72;;;18.00;66.30;;;;;;5003022;28;20058;-72
2023/04/08 12:05:06;;;;;;;6.95;4.03;;;17.80;67.30;;;;;;4987093;28;20439;-75
2023/04/08 12:07:32;;;;;;;10.15;3.17;;;17.80;65.70;;;;;;4985863;28;20441;-73
2023/04/08 12:09:57;;;;;;;7.25;3.78;;;17.70;66.40;;;;;;4989166;28;20034;-74
2023/04/08 12:12:23;;;;;;;5.93;2.75;;;17.40;66.30;;;;;;4988107;28;20033;-73
2023/04/08 12:14:49;;;;;;;8.75;4.43;;;17.50;67.40;;;;;;4986015;28;20426;-73
2023/04/08 12:17:15;;;;;;;41.30;6.22;;;17.90;68.10;;;;;;4985551;28;20712;-75
2023/04/08 12:19:40;;;;;;;6.30;2.20;;;18.00;67.80;;;;;;4986531;28;20100;-75
2023/04/08 12:22:06;;;;;;;9.30;6.63;;;18.00;67.20;;;;;;4987358;28;20053;-73
2023/04/08 12:24:32;;;;;;;11.05;5.13;;;18.00;66.60;;;;;;4987711;28;20040;-73
2023/04/08 12:26:58;;;;;;;7.32;3.65;;;18.20;68.70;;;;;;4986910;28;20368;-73
2023/04/08 12:29:23;;;;;;;9.00;3.72;;;18.40;69.10;;;;;;4987712;28;20419;-73
2023/04/08 12:31:49;;;;;;;7.90;4.38;;;18.40;67.80;;;;;;4987758;28;20026;-73
2023/04/08 12:34:15;;;;;;;9.65;5.00;;;18.30;67.90;;;;;;4985737;28;20054;-74
2023/04/08 12:36:41;;;;;;;9.32;5.35;;;18.70;69.60;;;;;;4987591;28;20087;-73
2023/04/08 12:39:07;;;;;;;8.65;4.80;;;18.80;70.20;;;;;;4980846;28;20508;-73